createdAt,value
2023-02-21T00:00:43.262Z,1009.6
2023-02-21T00:02:43.287Z,1009.7
2023-02-21T00:04:43.239Z,1009.6
2023-02-21T00:06:43.234Z,1009.6
2023-02-21T00:08:43.244Z,1009.5
2023-02-21T00:10:43.221Z,1009.5
2023-02-21T00:12:43.237Z,1009.6
2023-02-21T00:14:43.235Z,1009.6
2023-02-21T00:16:43.291Z,1009.5
2023-02-21T00:18:43.228Z,1009.5
2023-02-21T00:20:43.228Z,1009.5
2023-02-21T00:22:43.234Z,1009.6
2023-02-21T00:24:43.228Z,1009.5
2023-02-21T00:26:43.251Z,1009.5
2023-02-21T00:28:43.235Z,1009.5
2023-02-21T00:30:43.286Z,1009.5
2023-02-21T00:32:43.295Z,1009.5
2023-02-21T00:34:43.205Z,1009.5
2023-02-21T00:36:43.233Z,1009.5
2023-02-21T00:38:43.215Z,1009.5
2023-02-21T00:40:43.211Z,1009.4
2023-02-21T00:42:44.421Z,1009.4
2023-02-21T00:44:43.345Z,1009.4
2023-02-21T00:46:43.318Z,1009.4
2023-02-21T00:48:44.673Z,1009.4
2023-02-21T00:50:43.235Z,1009.4
2023-02-21T00:52:43.310Z,1009.4
2023-02-21T00:54:43.274Z,1009.4
2023-02-21T00:56:44.242Z,1009.4
2023-02-21T00:58:43.170Z,1009.3
2023-02-21T01:00:43.194Z,1009.3
2023-02-21T01:02:43.186Z,1009.3
2023-02-21T01:04:43.162Z,1009.4
2023-02-21T01:06:43.161Z,1009.4
2023-02-21T01:08:43.156Z,1009.4
2023-02-21T01:10:43.148Z,1009.5
2023-02-21T01:12:43.175Z,1009.4
2023-02-21T01:14:43.162Z,1009.2
2023-02-21T01:16:43.157Z,1009.2
2023-02-21T01:18:43.177Z,1009.1
2023-02-21T01:20:43.201Z,1009.1
2023-02-21T01:22:43.145Z,1009.1
2023-02-21T01:24:43.138Z,1009.1
2023-02-21T01:26:43.149Z,1009.1
2023-02-21T01:28:43.155Z,1009.2
2023-02-21T01:30:43.269Z,1009.1
2023-02-21T01:32:43.170Z,1009.1
2023-02-21T01:34:43.200Z,1009.2
2023-02-21T01:36:43.130Z,1009.1
2023-02-21T01:38:43.164Z,1009
2023-02-21T01:40:43.136Z,1009
2023-02-21T01:42:44.277Z,1008.9
2023-02-21T01:44:43.132Z,1008.9
2023-02-21T01:46:43.136Z,1009
2023-02-21T01:48:43.124Z,1008.9
2023-02-21T01:50:43.137Z,1009
2023-02-21T01:52:43.118Z,1009
2023-02-21T01:54:43.117Z,1009
2023-02-21T01:56:43.172Z,1009
2023-02-21T01:58:43.154Z,1008.9
2023-02-21T02:00:43.105Z,1008.8
2023-02-21T02:02:43.119Z,1008.8
2023-02-21T02:04:43.189Z,1008.8
2023-02-21T02:06:43.098Z,1008.7
2023-02-21T02:08:43.148Z,1008.7
2023-02-21T02:10:43.110Z,1008.7
2023-02-21T02:12:43.115Z,1008.8
2023-02-21T02:14:43.113Z,1008.8
2023-02-21T02:16:43.089Z,1008.8
2023-02-21T02:18:43.074Z,1008.7
2023-02-21T02:20:43.113Z,1008.7
2023-02-21T02:22:43.097Z,1008.7
2023-02-21T02:24:43.087Z,1008.7
2023-02-21T02:26:43.120Z,1008.7
2023-02-21T02:28:43.088Z,1008.6
2023-02-21T02:30:43.073Z,1008.6
2023-02-21T02:32:43.064Z,1008.6
2023-02-21T02:34:43.080Z,1008.6
2023-02-21T02:36:43.059Z,1008.5
2023-02-21T02:38:43.074Z,1008.6
2023-02-21T02:40:43.117Z,1008.6
2023-02-21T02:42:43.063Z,1008.6
2023-02-21T02:44:43.045Z,1008.6
2023-02-21T02:46:43.084Z,1008.6
2023-02-21T02:48:43.051Z,1008.6
2023-02-21T02:50:43.090Z,1008.6
2023-02-21T02:52:43.069Z,1008.6
2023-02-21T02:54:43.069Z,1008.7
2023-02-21T02:56:43.083Z,1008.7
2023-02-21T02:58:43.041Z,1008.7
2023-02-21T03:00:43.045Z,1008.7
2023-02-21T03:02:43.025Z,1008.7
2023-02-21T03:04:43.042Z,1008.6
2023-02-21T03:06:44.562Z,1008.6
2023-02-21T03:08:43.049Z,1008.6
2023-02-21T03:10:43.030Z,1008.7
2023-02-21T03:12:43.004Z,1008.8
2023-02-21T03:14:43.034Z,1008.8
2023-02-21T03:16:43.017Z,1008.8
2023-02-21T03:18:43.036Z,1008.8
2023-02-21T03:20:43.009Z,1008.8
2023-02-21T03:22:43.019Z,1008.7
2023-02-21T03:24:43.038Z,1008.8
2023-02-21T03:26:43.043Z,1008.7
2023-02-21T03:28:43.005Z,1008.6
2023-02-21T03:30:43.061Z,1008.6
2023-02-21T03:32:42.991Z,1008.4
2023-02-21T03:34:43.074Z,1008.5
2023-02-21T03:36:42.989Z,1008.5
2023-02-21T03:38:42.995Z,1008.5
2023-02-21T03:40:42.981Z,1008.5
2023-02-21T03:42:42.998Z,1008.5
2023-02-21T03:44:42.970Z,1008.4
2023-02-21T03:46:43.027Z,1008.4
2023-02-21T03:48:42.976Z,1008.3
2023-02-21T03:49:54.579Z,1008.3
2023-02-21T03:51:05.180Z,1008.3
2023-02-21T03:53:05.158Z,1008.2
2023-02-21T03:55:05.162Z,1008.2
2023-02-21T03:57:05.149Z,1008.1
2023-02-21T03:59:05.158Z,1008.1
2023-02-21T04:01:05.189Z,1008
2023-02-21T04:03:05.139Z,1008
2023-02-21T04:05:05.141Z,1008
2023-02-21T04:07:05.124Z,1008
2023-02-21T04:09:05.166Z,1007.9
2023-02-21T04:11:05.081Z,1007.8
2023-02-21T04:13:05.102Z,1007.8
2023-02-21T04:15:05.132Z,1007.7
2023-02-21T04:17:05.122Z,1007.6
2023-02-21T04:19:05.108Z,1007.5
2023-02-21T04:21:05.102Z,1007.5
2023-02-21T04:23:05.129Z,1007.4
2023-02-21T04:25:05.101Z,1007.4
2023-02-21T04:27:05.086Z,1007.4
2023-02-21T04:29:05.111Z,1007.3
2023-02-21T04:31:05.133Z,1007.3
2023-02-21T04:33:05.090Z,1007.2
2023-02-21T04:35:05.085Z,1007.2
2023-02-21T04:37:05.316Z,1007.1
2023-02-21T04:39:05.106Z,1007.1
2023-02-21T04:41:05.070Z,1007.1
2023-02-21T04:43:05.067Z,1007
2023-02-21T04:45:05.135Z,1006.9
2023-02-21T04:47:05.076Z,1006.9
2023-02-21T04:49:05.068Z,1006.9
2023-02-21T04:51:14.955Z,1006.9
2023-02-21T04:53:05.055Z,1007
2023-02-21T04:55:05.072Z,1007
2023-02-21T04:57:05.066Z,1007.1
2023-02-21T04:59:05.066Z,1007
2023-02-21T05:01:05.085Z,1007
2023-02-21T05:03:05.054Z,1007.1
2023-02-21T05:05:05.084Z,1007
2023-02-21T05:07:06.115Z,1006.9
2023-02-21T05:09:05.026Z,1006.7
2023-02-21T05:11:05.026Z,1006.7
2023-02-21T05:13:05.023Z,1006.7
2023-02-21T05:15:05.043Z,1006.6
2023-02-21T05:17:05.026Z,1006.6
2023-02-21T05:19:04.998Z,1006.6
2023-02-21T05:21:05.013Z,1006.6
2023-02-21T05:23:13.288Z,1006.5
2023-02-21T05:25:05.098Z,1006.4
2023-02-21T05:27:05.019Z,1006.3
2023-02-21T05:29:05.094Z,1006.2
2023-02-21T05:31:05.132Z,1006.2
2023-02-21T05:33:05.042Z,1006.2
2023-02-21T05:35:05.050Z,1006.2
2023-02-21T05:37:05.019Z,1006.2
2023-02-21T05:39:05.169Z,1006.2
2023-02-21T05:41:06.195Z,1006.1
2023-02-21T05:43:05.011Z,1006.1
2023-02-21T05:45:05.010Z,1006.1
2023-02-21T05:46:12.235Z,1006
2023-02-21T05:47:49.223Z,1006
2023-02-21T05:49:49.079Z,1006
2023-02-21T05:51:49.048Z,1006
2023-02-21T05:53:49.097Z,1005.9
2023-02-21T05:55:49.092Z,1005.9
2023-02-21T05:57:49.191Z,1005.9
2023-02-21T05:59:49.098Z,1005.8
2023-02-21T06:01:49.093Z,1005.8
2023-02-21T06:03:49.163Z,1005.7
2023-02-21T06:05:49.113Z,1005.7
2023-02-21T06:07:49.096Z,1005.6
2023-02-21T06:09:49.089Z,1005.5
2023-02-21T06:11:49.106Z,1005.4
2023-02-21T06:13:49.132Z,1005.4
2023-02-21T06:15:49.150Z,1005.3
2023-02-21T06:17:49.094Z,1005.3
2023-02-21T06:19:49.090Z,1005.3
2023-02-21T06:21:49.105Z,1005.2
2023-02-21T06:23:49.076Z,1005.3
2023-02-21T06:25:49.120Z,1005.2
2023-02-21T06:27:49.114Z,1005.1
2023-02-21T06:29:49.098Z,1005.2
2023-02-21T06:31:49.137Z,1005.3
2023-02-21T06:33:49.093Z,1005.2
2023-02-21T06:35:49.048Z,1005.2
2023-02-21T06:37:49.103Z,1005.2
2023-02-21T06:39:49.093Z,1005.1
2023-02-21T06:41:49.066Z,1005.1
2023-02-21T06:43:49.085Z,1005.1
2023-02-21T06:45:34.869Z,1005
2023-02-21T06:46:55.550Z,1005.1
2023-02-21T06:48:55.565Z,1005.1
2023-02-21T06:50:55.591Z,1005
2023-02-21T06:52:55.561Z,1005
2023-02-21T06:54:55.557Z,1005.1
2023-02-21T06:56:55.598Z,1005
2023-02-21T06:58:55.613Z,1005
2023-02-21T07:00:42.365Z,1005
2023-02-21T07:01:55.988Z,1005
2023-02-21T07:03:55.968Z,1005
2023-02-21T07:05:55.989Z,1004.9
2023-02-21T07:07:55.973Z,1004.9
2023-02-21T07:09:55.969Z,1005
2023-02-21T07:11:55.962Z,1005
2023-02-21T07:13:55.953Z,1005
2023-02-21T07:15:56.033Z,1004.9
2023-02-21T07:17:56.009Z,1004.9
2023-02-21T07:19:56.072Z,1004.9
2023-02-21T07:21:56.105Z,1005
2023-02-21T07:23:55.938Z,1004.9
2023-02-21T07:25:55.925Z,1004.8
2023-02-21T07:27:55.968Z,1004.8
2023-02-21T07:29:55.937Z,1004.8
2023-02-21T07:31:57.510Z,1004.8
2023-02-21T07:32:38.661Z,1004.8
2023-02-21T07:33:30.480Z,1004.8
2023-02-21T07:35:30.306Z,1004.8
2023-02-21T07:37:30.264Z,1004.8
2023-02-21T07:39:30.291Z,1004.7
2023-02-21T07:41:30.387Z,1004.6
2023-02-21T07:43:30.281Z,1004.6
2023-02-21T07:45:30.287Z,1004.6
2023-02-21T07:47:30.277Z,1004.6
2023-02-21T07:49:30.263Z,1004.5
2023-02-21T07:51:30.273Z,1004.6
2023-02-21T07:53:30.255Z,1004.6
2023-02-21T07:55:30.277Z,1004.5
2023-02-21T07:57:30.277Z,1004.5
2023-02-21T07:59:30.272Z,1004.5
2023-02-21T08:01:30.271Z,1004.5
2023-02-21T08:03:30.264Z,1004.6
2023-02-21T08:05:30.287Z,1004.6
2023-02-21T08:07:30.267Z,1004.7
2023-02-21T08:09:30.246Z,1004.7
2023-02-21T08:11:32.767Z,1004.7
2023-02-21T08:13:30.239Z,1004.7
2023-02-21T08:15:30.261Z,1004.7
2023-02-21T08:17:30.221Z,1004.7
2023-02-21T08:19:30.229Z,1004.7
2023-02-21T08:21:30.200Z,1004.7
2023-02-21T08:23:30.256Z,1004.7
2023-02-21T08:25:30.247Z,1004.7
2023-02-21T08:27:30.223Z,1004.6
2023-02-21T08:29:30.232Z,1004.6
2023-02-21T08:31:30.252Z,1004.7
2023-02-21T08:33:31.542Z,1004.7
2023-02-21T08:35:30.201Z,1004.7
2023-02-21T08:37:30.198Z,1004.6
2023-02-21T08:39:30.254Z,1004.7
2023-02-21T08:41:30.211Z,1004.7
2023-02-21T08:43:30.310Z,1004.7
2023-02-21T08:45:31.592Z,1004.6
2023-02-21T08:47:30.221Z,1004.6
2023-02-21T08:49:30.196Z,1004.6
2023-02-21T08:51:30.435Z,1004.7
2023-02-21T08:53:30.218Z,1004.7
2023-02-21T08:55:30.174Z,1004.7
2023-02-21T08:57:30.204Z,1004.7
2023-02-21T08:58:35.286Z,1004.7
2023-02-21T08:59:33.631Z,1004.6
2023-02-21T09:01:33.492Z,1004.5
2023-02-21T09:03:33.455Z,1004.5
2023-02-21T09:05:33.480Z,1004.5
2023-02-21T09:07:33.508Z,1004.5
2023-02-21T09:09:33.468Z,1004.5
2023-02-21T09:11:33.446Z,1004.6
2023-02-21T09:13:33.469Z,1004.6
2023-02-21T09:15:33.457Z,1004.6
2023-02-21T09:17:33.442Z,1004.7
2023-02-21T09:19:42.839Z,1004.7
2023-02-21T09:20:52.088Z,1004.7
2023-02-21T09:22:50.676Z,1004.7
2023-02-21T09:24:50.788Z,1004.8
2023-02-21T09:26:50.632Z,1004.9
2023-02-21T09:28:50.630Z,1004.9
2023-02-21T09:30:50.618Z,1004.8
2023-02-21T09:32:50.613Z,1004.8
2023-02-21T09:34:50.643Z,1004.9
2023-02-21T09:36:50.683Z,1004.9
2023-02-21T09:38:50.617Z,1004.9
2023-02-21T09:40:50.610Z,1004.9
2023-02-21T09:41:04.061Z,1004.9
2023-02-21T09:42:04.699Z,1004.9
2023-02-21T09:44:04.671Z,1004.9
2023-02-21T09:46:04.672Z,1004.9
2023-02-21T09:48:04.667Z,1004.9
2023-02-21T09:50:04.646Z,1004.9
2023-02-21T09:52:04.648Z,1004.9
2023-02-21T09:54:04.635Z,1004.9
2023-02-21T09:56:04.652Z,1004.8
2023-02-21T09:58:04.628Z,1004.9
2023-02-21T10:00:04.672Z,1005
2023-02-21T10:02:04.669Z,1004.9
2023-02-21T10:04:04.623Z,1005
2023-02-21T10:06:05.641Z,1005
2023-02-21T10:08:04.615Z,1005
2023-02-21T10:10:04.651Z,1004.9
2023-02-21T10:12:04.628Z,1004.9
2023-02-21T10:14:04.624Z,1004.9
2023-02-21T10:16:04.630Z,1004.8
2023-02-21T10:18:04.609Z,1004.8
2023-02-21T10:20:04.587Z,1004.7
2023-02-21T10:22:04.644Z,1004.5
2023-02-21T10:24:04.621Z,1004.3
2023-02-21T10:26:04.601Z,1004.3
2023-02-21T10:28:04.620Z,1004.7
2023-02-21T10:30:04.923Z,1004.8
2023-02-21T10:32:05.904Z,1004.8
2023-02-21T10:34:04.682Z,1004.9
2023-02-21T10:36:04.566Z,1004.9
2023-02-21T10:38:04.512Z,1004.9
2023-02-21T10:40:04.577Z,1004.8
2023-02-21T10:42:04.636Z,1004.9
2023-02-21T10:44:04.565Z,1004.9
2023-02-21T10:46:04.724Z,1004.9
2023-02-21T10:48:04.560Z,1004.9
2023-02-21T10:50:04.604Z,1004.9
2023-02-21T10:52:04.594Z,1004.9
2023-02-21T10:54:04.553Z,1004.9
2023-02-21T10:56:04.568Z,1004.9
2023-02-21T10:58:04.548Z,1004.9
2023-02-21T11:00:04.554Z,1004.9
2023-02-21T11:02:04.702Z,1005
2023-02-21T11:03:04.710Z,1005
2023-02-21T11:03:57.976Z,1005
2023-02-21T11:05:58.072Z,1005
2023-02-21T11:07:57.956Z,1005
2023-02-21T11:09:57.980Z,1005
2023-02-21T11:11:57.948Z,1004.9
2023-02-21T11:13:57.926Z,1005
2023-02-21T11:16:25.794Z,1005
2023-02-21T11:17:19.781Z,1005
2023-02-21T11:17:58.077Z,1005
2023-02-21T11:19:57.930Z,1005.1
2023-02-21T11:21:57.957Z,1005.2
2023-02-21T11:23:57.950Z,1005.2
2023-02-21T11:25:57.937Z,1005.2
2023-02-21T11:27:57.930Z,1005.2
2023-02-21T11:29:57.894Z,1005.2
2023-02-21T11:31:57.920Z,1005.2
2023-02-21T11:33:57.918Z,1005.3
2023-02-21T11:35:57.891Z,1005.2
2023-02-21T11:37:57.889Z,1005.3
2023-02-21T11:39:59.078Z,1005.4
2023-02-21T11:41:57.954Z,1005.3
2023-02-21T11:43:57.960Z,1005.2
2023-02-21T11:45:58.143Z,1005.3
2023-02-21T11:47:57.990Z,1005.3
2023-02-21T11:49:58.084Z,1005.4
2023-02-21T11:51:59.330Z,1005.5
2023-02-21T11:53:59.246Z,1005.4
2023-02-21T11:55:57.876Z,1005.3
2023-02-21T11:57:57.979Z,1005.4
2023-02-21T11:59:57.957Z,1005.5
2023-02-21T12:01:57.928Z,1005.5
2023-02-21T12:03:57.889Z,1005.7
2023-02-21T12:06:00.610Z,1005.7
2023-02-21T12:08:00.902Z,1005.6
2023-02-21T12:09:57.864Z,1005.5
2023-02-21T12:12:01.254Z,1005.5
2023-02-21T12:13:57.934Z,1005.5
2023-02-21T12:15:58.116Z,1005.6
2023-02-21T12:18:15.076Z,1005.8
2023-02-21T12:19:57.857Z,1006
2023-02-21T12:21:57.891Z,1006.1
2023-02-21T12:23:57.925Z,1006.2
2023-02-21T12:25:36.338Z,1006.2
2023-02-21T12:25:39.812Z,1006.3
2023-02-21T12:27:39.918Z,1006.5
2023-02-21T12:29:39.757Z,1006.5
2023-02-21T12:31:39.852Z,1006.4
2023-02-21T12:33:40.291Z,1006.2
2023-02-21T12:35:41.285Z,1006.2
2023-02-21T12:37:41.059Z,1006.1
2023-02-21T12:39:40.808Z,1006
2023-02-21T12:41:39.743Z,1005.9
2023-02-21T12:43:39.835Z,1005.9
2023-02-21T12:45:39.921Z,1006
2023-02-21T12:47:40.561Z,1006.1
2023-02-21T12:49:39.729Z,1006
2023-02-21T12:51:39.847Z,1006
2023-02-21T12:53:40.796Z,1006
2023-02-21T12:55:40.438Z,1005.9
2023-02-21T12:57:39.865Z,1005.8
2023-02-21T12:59:43.818Z,1005.8
2023-02-21T13:01:39.916Z,1005.7
2023-02-21T13:03:39.690Z,1005.7
2023-02-21T13:05:40.783Z,1005.9
2023-02-21T13:07:39.803Z,1006.1
2023-02-21T13:09:50.074Z,1006.1
2023-02-21T13:11:43.172Z,1006.1
2023-02-21T13:13:41.124Z,1006.3
2023-02-21T13:15:44.268Z,1006.3
2023-02-21T13:17:39.805Z,1006.3
2023-02-21T13:19:45.747Z,1006.2
2023-02-21T13:21:39.810Z,1006.2
2023-02-21T13:23:39.751Z,1006.2
2023-02-21T13:25:39.747Z,1006.2
2023-02-21T13:27:41.491Z,1006.1
2023-02-21T13:29:40.825Z,1006.1
2023-02-21T13:31:39.869Z,1006.1
2023-02-21T13:33:39.766Z,1006.1
2023-02-21T13:35:41.164Z,1006.2
2023-02-21T13:37:39.739Z,1006.2
2023-02-21T13:39:42.287Z,1006.3
2023-02-21T13:41:42.025Z,1006.4
2023-02-21T13:43:39.793Z,1006.4
2023-02-21T13:45:40.542Z,1006.5
2023-02-21T13:47:39.654Z,1006.5
2023-02-21T13:49:40.710Z,1006.4
2023-02-21T13:51:40.501Z,1006.3
2023-02-21T13:53:39.689Z,1006.2
2023-02-21T13:55:40.852Z,1006.2
2023-02-21T13:57:39.841Z,1006.2
2023-02-21T13:59:39.740Z,1006.2
2023-02-21T14:01:39.721Z,1006.3
2023-02-21T14:03:39.768Z,1006.3
2023-02-21T14:05:39.638Z,1006.4
2023-02-21T14:07:39.658Z,1006.3
2023-02-21T14:09:40.425Z,1006.4
2023-02-21T14:11:39.650Z,1006.5
2023-02-21T14:13:39.897Z,1006.5
2023-02-21T14:15:39.704Z,1006.5
2023-02-21T14:17:39.754Z,1006.5
2023-02-21T14:19:39.836Z,1006.6
2023-02-21T14:21:39.636Z,1006.6
2023-02-21T14:23:39.727Z,1006.6
2023-02-21T14:25:39.622Z,1006.7
2023-02-21T14:27:40.537Z,1006.7
2023-02-21T14:29:39.719Z,1006.7
2023-02-21T14:31:39.800Z,1006.6
2023-02-21T14:33:39.708Z,1006.6
2023-02-21T14:35:39.610Z,1006.6
2023-02-21T14:37:39.712Z,1006.5
2023-02-21T14:39:39.650Z,1006.6
2023-02-21T14:41:40.454Z,1006.5
2023-02-21T14:43:39.703Z,1006.5
2023-02-21T14:45:43.790Z,1006.5
2023-02-21T14:47:42.263Z,1006.5
2023-02-21T14:49:40.958Z,1006.6
2023-02-21T14:51:39.588Z,1006.6
2023-02-21T14:53:42.145Z,1006.6
2023-02-21T14:55:39.696Z,1006.6
2023-02-21T14:57:39.647Z,1006.6
2023-02-21T14:59:50.307Z,1006.6
2023-02-21T15:01:39.651Z,1006.6
2023-02-21T15:03:40.967Z,1006.7
2023-02-21T15:05:45.499Z,1006.7
2023-02-21T15:07:40.573Z,1006.7
2023-02-21T15:09:40.759Z,1006.7
2023-02-21T15:11:39.806Z,1006.7
2023-02-21T15:13:40.637Z,1006.7
2023-02-21T15:15:40.544Z,1006.7
2023-02-21T15:17:42.223Z,1006.8
2023-02-21T15:19:39.561Z,1006.8
2023-02-21T15:21:43.745Z,1006.7
2023-02-21T15:23:43.879Z,1006.8
2023-02-21T15:25:41.979Z,1006.7
2023-02-21T15:27:39.582Z,1006.7
2023-02-21T15:29:40.766Z,1006.7
2023-02-21T15:31:39.596Z,1006.7
2023-02-21T15:33:40.720Z,1006.6
2023-02-21T15:35:40.345Z,1006.6
2023-02-21T15:37:40.539Z,1006.6
2023-02-21T15:39:40.615Z,1006.5
2023-02-21T15:41:43.909Z,1006.5
2023-02-21T15:43:39.514Z,1006.5
2023-02-21T15:45:39.616Z,1006.5
2023-02-21T15:47:40.724Z,1006.5
2023-02-21T15:49:39.552Z,1006.6
2023-02-21T15:51:39.606Z,1006.5
2023-02-21T15:53:39.584Z,1006.6
2023-02-21T15:55:40.297Z,1006.6
2023-02-21T15:57:39.548Z,1006.6
2023-02-21T15:59:39.641Z,1006.5
2023-02-21T16:01:39.653Z,1006.6
2023-02-21T16:03:39.545Z,1006.6
2023-02-21T16:05:39.607Z,1006.7
2023-02-21T16:07:39.610Z,1006.7
2023-02-21T16:09:39.610Z,1006.7
2023-02-21T16:11:39.709Z,1006.7
2023-02-21T16:13:39.624Z,1006.8
2023-02-21T16:15:39.697Z,1006.8
2023-02-21T16:17:39.668Z,1006.8
2023-02-21T16:19:39.595Z,1006.8
2023-02-21T16:21:39.501Z,1006.8
2023-02-21T16:23:39.479Z,1006.8
2023-02-21T16:25:39.536Z,1006.8
2023-02-21T16:27:39.491Z,1006.8
2023-02-21T16:29:39.528Z,1006.8
2023-02-21T16:31:39.834Z,1006.8
2023-02-21T16:33:39.464Z,1006.8
2023-02-21T16:35:40.271Z,1006.8
2023-02-21T16:37:40.488Z,1006.8
2023-02-21T16:39:39.566Z,1006.7
2023-02-21T16:41:39.504Z,1006.7
2023-02-21T16:43:39.496Z,1006.7
2023-02-21T16:45:40.521Z,1006.8
2023-02-21T16:47:39.780Z,1006.7
2023-02-21T16:49:39.443Z,1006.7
2023-02-21T16:51:40.183Z,1006.6
2023-02-21T16:53:39.453Z,1006.6
2023-02-21T16:55:39.451Z,1006.5
2023-02-21T16:57:39.546Z,1006.5
2023-02-21T16:59:40.928Z,1006.4
2023-02-21T17:01:39.515Z,1006.5
2023-02-21T17:03:41.358Z,1006.3
2023-02-21T17:05:39.504Z,1006.3
2023-02-21T17:07:41.224Z,1006.3
2023-02-21T17:09:39.475Z,1006.3
2023-02-21T17:11:40.412Z,1006.3
2023-02-21T17:13:40.426Z,1006.3
2023-02-21T17:15:39.536Z,1006.3
2023-02-21T17:17:39.487Z,1006.2
2023-02-21T17:19:39.521Z,1006.1
2023-02-21T17:21:39.421Z,1006.1
2023-02-21T17:23:39.439Z,1006.2
2023-02-21T17:25:39.464Z,1006.2
2023-02-21T17:27:39.596Z,1006.1
2023-02-21T17:29:40.326Z,1005.9
2023-02-21T17:31:39.476Z,1005.9
2023-02-21T17:33:40.895Z,1005.9
2023-02-21T17:35:39.539Z,1005.8
2023-02-21T17:37:40.443Z,1005.7
2023-02-21T17:39:41.891Z,1005.6
2023-02-21T17:41:41.204Z,1005.5
2023-02-21T17:43:40.429Z,1005.6
2023-02-21T17:45:42.578Z,1005.5
2023-02-21T17:47:41.049Z,1005.5
2023-02-21T17:49:39.562Z,1005.3
2023-02-21T17:51:39.552Z,1005.3
2023-02-21T17:53:39.479Z,1005.5
2023-02-21T17:55:39.608Z,1005.4
2023-02-21T17:57:39.446Z,1005.3
2023-02-21T17:59:40.346Z,1005.2
2023-02-21T18:01:40.224Z,1005.2
2023-02-21T18:03:40.517Z,1005.1
2023-02-21T18:05:39.504Z,1005.1
2023-02-21T18:07:50.468Z,1005.1
2023-02-21T18:09:39.489Z,1005.1
2023-02-21T18:11:40.151Z,1005.1
2023-02-21T18:13:39.399Z,1005.1
2023-02-21T18:15:39.400Z,1005.2
2023-02-21T18:17:39.448Z,1005.1
2023-02-21T18:19:39.498Z,1005.2
2023-02-21T18:21:39.376Z,1005.1
2023-02-21T18:23:41.157Z,1005.1
2023-02-21T18:25:39.446Z,1005
2023-02-21T18:27:39.402Z,1005.1
2023-02-21T18:29:39.393Z,1005
2023-02-21T18:31:39.486Z,1004.9
2023-02-21T18:33:39.360Z,1004.9
2023-02-21T18:35:39.416Z,1004.8
2023-02-21T18:37:39.353Z,1004.9
2023-02-21T18:39:41.747Z,1004.9
2023-02-21T18:41:39.396Z,1004.9
2023-02-21T18:43:39.393Z,1004.8
2023-02-21T18:45:39.326Z,1004.7
2023-02-21T18:47:39.320Z,1004.7
2023-02-21T18:49:39.448Z,1004.9
2023-02-21T18:51:40.455Z,1004.9
2023-02-21T18:53:39.306Z,1004.9
2023-02-21T18:55:41.629Z,1004.8
2023-02-21T18:57:39.383Z,1004.9
2023-02-21T18:59:39.345Z,1004.7
2023-02-21T19:01:40.470Z,1004.7
2023-02-21T19:03:42.286Z,1004.8
2023-02-21T19:05:43.413Z,1004.7
2023-02-21T19:07:39.998Z,1004.8
2023-02-21T19:09:39.376Z,1004.8
2023-02-21T19:11:43.759Z,1004.8
2023-02-21T19:13:39.350Z,1004.6
2023-02-21T19:15:40.169Z,1004.7
2023-02-21T19:17:40.006Z,1004.8
2023-02-21T19:19:40.059Z,1004.6
2023-02-21T19:21:39.329Z,1004.8
2023-02-21T19:23:39.502Z,1004.7
2023-02-21T19:25:40.262Z,1004.6
2023-02-21T19:27:39.289Z,1004.8
2023-02-21T19:29:39.338Z,1004.7
2023-02-21T19:31:39.315Z,1004.8
2023-02-21T19:33:39.248Z,1004.7
2023-02-21T19:35:39.335Z,1004.6
2023-02-21T19:37:39.254Z,1004.7
2023-02-21T19:39:39.253Z,1004.6
2023-02-21T19:41:39.283Z,1004.7
2023-02-21T19:43:39.247Z,1004.8
2023-02-21T19:45:39.294Z,1004.7
2023-02-21T19:47:39.226Z,1004.9
2023-02-21T19:49:39.240Z,1004.8
2023-02-21T19:51:39.244Z,1004.9
2023-02-21T19:53:40.164Z,1005
2023-02-21T19:55:39.273Z,1005.1
2023-02-21T19:57:39.295Z,1005.1
2023-02-21T19:59:39.341Z,1005.1
2023-02-21T20:01:39.381Z,1005.1
2023-02-21T20:03:39.328Z,1005.2
2023-02-21T20:05:39.234Z,1005.2
2023-02-21T20:07:39.266Z,1005.3
2023-02-21T20:09:39.291Z,1005.2
2023-02-21T20:11:39.306Z,1005.3
2023-02-21T20:13:39.291Z,1005.3
2023-02-21T20:15:39.274Z,1005.4
2023-02-21T20:17:39.267Z,1005.3
2023-02-21T20:19:39.232Z,1005.3
2023-02-21T20:21:39.200Z,1005.4
2023-02-21T20:23:39.203Z,1005.4
2023-02-21T20:25:39.224Z,1005.3
2023-02-21T20:27:39.254Z,1005.3
2023-02-21T20:29:39.213Z,1005.3
2023-02-21T20:31:39.307Z,1005.4
2023-02-21T20:33:39.221Z,1005.3
2023-02-21T20:35:39.180Z,1005.3
2023-02-21T20:37:39.212Z,1005.4
2023-02-21T20:39:39.213Z,1005.5
2023-02-21T20:41:39.218Z,1005.2
2023-02-21T20:43:39.229Z,1005.4
2023-02-21T20:45:39.216Z,1005.5
2023-02-21T20:47:56.586Z,1005.6
2023-02-21T20:49:39.181Z,1005.7
2023-02-21T20:51:39.342Z,1005.6
2023-02-21T20:53:39.185Z,1005.7
2023-02-21T20:55:39.271Z,1005.7
2023-02-21T20:57:39.306Z,1005.7
2023-02-21T20:59:42.996Z,1005.8
2023-02-21T21:01:39.262Z,1005.9
2023-02-21T21:03:39.194Z,1005.8
2023-02-21T21:05:39.213Z,1006
2023-02-21T21:07:39.149Z,1005.8
2023-02-21T21:09:39.148Z,1005.9
2023-02-21T21:11:39.332Z,1006
2023-02-21T21:13:40.230Z,1006.2
2023-02-21T21:15:39.340Z,1006.1
2023-02-21T21:17:39.178Z,1006.1
2023-02-21T21:19:39.173Z,1006.1
2023-02-21T21:21:39.138Z,1006
2023-02-21T21:23:39.145Z,1006.3
2023-02-21T21:25:39.159Z,1006.3
2023-02-21T21:27:39.147Z,1006.2
2023-02-21T21:29:39.132Z,1006.3
2023-02-21T21:31:39.133Z,1006.3
2023-02-21T21:33:39.120Z,1006.4
2023-02-21T21:35:39.127Z,1006.3
2023-02-21T21:37:39.123Z,1006.3
2023-02-21T21:39:39.179Z,1006.4
2023-02-21T21:41:39.092Z,1006.4
2023-02-21T21:43:39.115Z,1006.4
2023-02-21T21:45:39.114Z,1006.5
2023-02-21T21:47:39.109Z,1006.4
2023-02-21T21:49:39.124Z,1006.4
2023-02-21T21:51:39.230Z,1006.4
2023-02-21T21:53:39.103Z,1006.4
2023-02-21T21:55:39.097Z,1006.4
2023-02-21T21:57:39.101Z,1006.3
2023-02-21T21:59:39.128Z,1006.4
2023-02-21T22:01:40.207Z,1006.3
2023-02-21T22:03:39.123Z,1006.4
2023-02-21T22:05:39.175Z,1006.6
2023-02-21T22:07:39.078Z,1006.5
2023-02-21T22:09:39.157Z,1006.6
2023-02-21T22:11:39.119Z,1006.6
2023-02-21T22:13:39.094Z,1006.6
2023-02-21T22:15:39.095Z,1006.7
2023-02-21T22:17:39.088Z,1006.8
2023-02-21T22:19:39.168Z,1006.8
2023-02-21T22:21:39.075Z,1006.9
2023-02-21T22:23:39.075Z,1006.9
2023-02-21T22:25:39.067Z,1007
2023-02-21T22:27:39.048Z,1007
2023-02-21T22:29:39.156Z,1007
2023-02-21T22:31:39.164Z,1007.1
2023-02-21T22:33:39.060Z,1007
2023-02-21T22:35:39.045Z,1007
2023-02-21T22:37:39.974Z,1007
2023-02-21T22:39:39.081Z,1007.2
2023-02-21T22:41:39.045Z,1007.2
2023-02-21T22:43:40.252Z,1007.3
2023-02-21T22:45:39.055Z,1007.4
2023-02-21T22:47:39.082Z,1007.4
2023-02-21T22:49:39.041Z,1007.4
2023-02-21T22:51:39.094Z,1007.5
2023-02-21T22:53:39.014Z,1007.5
2023-02-21T22:55:39.035Z,1007.5
2023-02-21T22:57:39.044Z,1007.6
2023-02-21T22:59:39.008Z,1007.6
2023-02-21T23:01:39.032Z,1007.7
2023-02-21T23:03:39.034Z,1007.7
2023-02-21T23:05:39.030Z,1007.7
2023-02-21T23:07:38.999Z,1007.7
2023-02-21T23:09:39.028Z,1007.8
2023-02-21T23:11:39.044Z,1007.8
2023-02-21T23:13:39.012Z,1007.9
2023-02-21T23:15:38.996Z,1007.9
2023-02-21T23:17:39.021Z,1007.9
2023-02-21T23:19:39.016Z,1007.9
2023-02-21T23:21:38.986Z,1008
2023-02-21T23:23:39.008Z,1008
2023-02-21T23:25:38.988Z,1008.1
2023-02-21T23:27:39.009Z,1008.2
2023-02-21T23:29:38.984Z,1008.2
2023-02-21T23:31:39.093Z,1008.3
2023-02-21T23:33:39.021Z,1008.3
2023-02-21T23:35:38.979Z,1008.3
2023-02-21T23:37:38.970Z,1008.4
2023-02-21T23:39:38.958Z,1008.5
2023-02-21T23:41:39.093Z,1008.5
2023-02-21T23:43:38.960Z,1008.5
2023-02-21T23:45:38.969Z,1008.6
2023-02-21T23:47:40.584Z,1008.6
2023-02-21T23:49:38.967Z,1008.6
2023-02-21T23:51:38.956Z,1008.6
2023-02-21T23:53:38.976Z,1008.6
2023-02-21T23:55:38.973Z,1008.7
2023-02-21T23:57:38.981Z,1008.7
2023-02-21T23:59:38.987Z,1008.8
